createdAt,value
2017-09-24T00:00:03.705Z,96034
2017-09-24T00:05:31.864Z,96027
2017-09-24T00:11:00.020Z,96031
2017-09-24T00:16:28.166Z,96033
2017-09-24T00:21:56.312Z,96029
2017-09-24T00:27:24.466Z,96019
2017-09-24T00:32:52.648Z,96017
2017-09-24T00:38:20.806Z,96008
2017-09-24T00:43:48.966Z,96008
2017-09-24T00:49:17.130Z,96009
2017-09-24T00:54:45.271Z,96007
2017-09-24T01:00:13.411Z,95997
2017-09-24T01:05:41.651Z,96003
2017-09-24T01:11:09.895Z,96005
2017-09-24T01:16:38.821Z,96002
2017-09-24T01:22:07.128Z,96005
2017-09-24T01:27:35.385Z,96010
2017-09-24T01:33:03.608Z,96000
2017-09-24T01:38:31.761Z,96002
2017-09-24T01:43:59.906Z,96002
2017-09-24T01:49:28.059Z,96007
2017-09-24T01:54:56.203Z,96019
2017-09-24T02:00:24.359Z,96015
2017-09-24T02:05:53.308Z,96008
2017-09-24T02:11:22.235Z,96007
2017-09-24T02:16:50.370Z,96017
2017-09-24T02:22:19.274Z,96010
2017-09-24T02:27:47.427Z,96011
2017-09-24T02:33:15.570Z,96011
2017-09-24T02:38:43.706Z,96017
2017-09-24T02:44:11.853Z,96008
2017-09-24T02:49:40.759Z,96006
2017-09-24T02:55:08.999Z,96009
2017-09-24T03:00:37.152Z,96005
2017-09-24T03:06:05.285Z,96007
2017-09-24T03:11:34.204Z,96005
2017-09-24T03:17:02.360Z,96003
2017-09-24T03:22:30.499Z,96005
2017-09-24T03:27:58.634Z,95994
2017-09-24T03:33:27.557Z,95997
2017-09-24T03:38:55.695Z,95994
2017-09-24T03:44:23.836Z,96003
2017-09-24T03:49:52.749Z,96001
2017-09-24T03:55:20.878Z,96016
2017-09-24T04:00:49.087Z,96010
2017-09-24T04:06:17.241Z,96002
2017-09-24T04:11:45.383Z,96007
2017-09-24T04:17:13.556Z,96008
2017-09-24T04:22:41.699Z,96009
2017-09-24T04:28:09.841Z,96012
2017-09-24T04:33:37.984Z,96018
2017-09-24T04:39:06.886Z,96009
2017-09-24T04:44:35.018Z,96017
2017-09-24T04:50:03.174Z,96018
2017-09-24T04:55:31.419Z,96021
2017-09-24T05:01:00.364Z,96026
2017-09-24T05:06:28.519Z,96023
2017-09-24T05:11:56.661Z,96021
2017-09-24T05:17:24.804Z,96030
2017-09-24T05:22:52.935Z,96031
2017-09-24T05:28:21.847Z,96043
2017-09-24T05:33:49.987Z,96044
2017-09-24T05:39:18.119Z,96043
2017-09-24T05:44:47.048Z,96046
2017-09-24T05:50:15.201Z,96047
2017-09-24T05:55:44.301Z,96046
2017-09-24T06:01:12.468Z,96045
2017-09-24T06:06:40.620Z,96055
2017-09-24T06:12:08.766Z,96054
2017-09-24T06:17:36.898Z,96058
2017-09-24T06:23:05.053Z,96064
2017-09-24T06:28:33.232Z,96060
2017-09-24T06:34:05.823Z,96070
2017-09-24T06:39:33.993Z,96067
2017-09-24T06:45:02.919Z,96065
2017-09-24T06:50:31.085Z,96074
2017-09-24T06:55:59.256Z,96084
2017-09-24T07:01:27.425Z,96078
2017-09-24T07:06:55.585Z,96087
2017-09-24T07:12:23.735Z,96085
2017-09-24T07:17:51.926Z,96092
2017-09-24T07:23:21.079Z,96106
2017-09-24T07:28:49.259Z,96107
2017-09-24T07:34:18.211Z,96109
2017-09-24T07:39:46.384Z,96108
2017-09-24T07:45:14.546Z,96109
2017-09-24T07:50:42.699Z,96106
2017-09-24T07:56:10.848Z,96106
2017-09-24T08:01:38.988Z,96113
2017-09-24T08:07:07.154Z,96116
2017-09-24T08:12:35.302Z,96112
2017-09-24T08:18:03.539Z,96128
2017-09-24T08:23:31.703Z,96123
2017-09-24T08:28:59.858Z,96125
2017-09-24T08:34:29.174Z,96127
2017-09-24T08:39:59.432Z,96123
2017-09-24T08:45:27.680Z,96126
2017-09-24T08:50:56.064Z,96130
2017-09-24T08:56:24.459Z,96130
2017-09-24T09:01:52.746Z,96133
2017-09-24T09:07:21.146Z,96126
2017-09-24T09:12:49.306Z,96131
2017-09-24T09:18:20.834Z,96132
2017-09-24T09:23:51.250Z,96129
2017-09-24T09:29:19.514Z,96127
2017-09-24T09:35:05.703Z,96130
2017-09-24T09:40:33.934Z,96126
2017-09-24T09:46:05.928Z,96124
2017-09-24T09:51:34.105Z,96126
2017-09-24T09:57:02.251Z,96119
2017-09-24T10:02:30.454Z,96124
2017-09-24T10:14:17.254Z,96135
2017-09-24T10:19:45.416Z,96129
2017-09-24T10:25:13.563Z,96124
2017-09-24T10:30:58.277Z,96118
2017-09-24T10:36:26.462Z,96110
2017-09-24T10:41:55.366Z,96112
2017-09-24T10:47:23.524Z,96105
2017-09-24T10:52:51.694Z,96109
2017-09-24T10:58:19.868Z,96101
2017-09-24T11:03:48.027Z,96120
2017-09-24T11:09:16.207Z,96105
2017-09-24T11:14:44.351Z,96103
2017-09-24T11:20:12.530Z,96092
2017-09-24T11:25:40.706Z,96088
2017-09-24T11:31:09.662Z,96078
2017-09-24T11:36:39.602Z,96070
2017-09-24T11:42:07.903Z,96073
2017-09-24T11:47:37.143Z,96080
2017-09-24T11:53:05.314Z,96085
2017-09-24T11:58:33.522Z,96078
2017-09-24T12:04:01.944Z,96071
2017-09-24T12:09:30.107Z,96071
2017-09-24T12:14:58.261Z,96080
2017-09-24T12:20:26.437Z,96074
2017-09-24T12:25:54.609Z,96074
2017-09-24T12:31:22.763Z,96061
2017-09-24T12:36:50.949Z,96065
2017-09-24T12:42:21.126Z,96066
2017-09-24T12:47:49.266Z,96069
2017-09-24T12:53:17.527Z,96080
2017-09-24T12:58:45.687Z,96065
2017-09-24T13:04:13.916Z,96061
2017-09-24T13:09:49.663Z,96061
2017-09-24T13:15:17.860Z,96058
2017-09-24T13:20:46.007Z,96055
2017-09-24T13:26:14.164Z,96044
2017-09-24T13:31:42.314Z,96053
2017-09-24T13:37:10.461Z,96058
2017-09-24T13:42:38.624Z,96072
2017-09-24T13:48:06.792Z,96073
2017-09-24T13:53:34.944Z,96079
2017-09-24T13:59:03.108Z,96086
2017-09-24T14:04:31.248Z,96078
2017-09-24T14:09:59.407Z,96077
2017-09-24T14:15:27.574Z,96073
2017-09-24T14:20:55.735Z,96077
2017-09-24T14:26:23.893Z,96080
2017-09-24T14:31:52.044Z,96086
2017-09-24T14:37:20.192Z,96086
2017-09-24T14:42:48.452Z,96088
2017-09-24T14:48:16.605Z,96092
2017-09-24T14:53:44.784Z,96090
2017-09-24T14:59:13.108Z,96088
2017-09-24T15:04:41.351Z,96090
2017-09-24T15:10:12.253Z,96082
2017-09-24T15:15:40.409Z,96086
2017-09-24T15:21:08.554Z,96083
2017-09-24T15:26:36.839Z,96089
2017-09-24T15:32:05.736Z,96102
2017-09-24T15:37:33.910Z,96093
2017-09-24T15:43:02.128Z,96099
2017-09-24T15:48:30.288Z,96106
2017-09-24T15:53:58.446Z,96104
2017-09-24T15:59:27.373Z,96110
2017-09-24T16:04:55.588Z,96114
2017-09-24T16:10:24.016Z,96111
2017-09-24T16:15:52.221Z,96115
2017-09-24T16:21:20.470Z,96108
2017-09-24T16:26:49.401Z,96115
2017-09-24T16:32:18.800Z,96127
2017-09-24T16:37:47.045Z,96127
2017-09-24T16:43:15.235Z,96134
2017-09-24T16:48:43.640Z,96139
2017-09-24T16:54:11.810Z,96144
2017-09-24T16:59:39.978Z,96137
2017-09-24T17:05:08.187Z,96142
2017-09-24T17:10:37.106Z,96141
2017-09-24T17:16:05.263Z,96147
2017-09-24T17:21:33.433Z,96154
2017-09-24T17:27:01.606Z,96152
2017-09-24T17:32:29.770Z,96153
2017-09-24T17:37:57.915Z,96162
2017-09-24T17:43:26.092Z,96164
2017-09-24T17:48:54.248Z,96175
2017-09-24T17:54:22.423Z,96166
2017-09-24T17:59:51.392Z,96171
2017-09-24T18:05:19.561Z,96162
2017-09-24T18:10:47.737Z,96159
2017-09-24T18:16:15.900Z,96163
2017-09-24T18:21:44.054Z,96157
2017-09-24T18:27:12.381Z,96166
2017-09-24T18:32:40.537Z,96164
2017-09-24T18:38:09.627Z,96151
2017-09-24T18:43:37.771Z,96153
2017-09-24T18:49:05.960Z,96152
2017-09-24T18:54:34.123Z,96147
2017-09-24T19:00:03.166Z,96139
2017-09-24T19:05:31.335Z,96144
2017-09-24T19:10:59.500Z,96151
2017-09-24T19:16:28.412Z,96141
2017-09-24T19:21:56.568Z,96152
2017-09-24T19:27:24.722Z,96152
2017-09-24T19:32:52.889Z,96157
2017-09-24T19:38:21.055Z,96161
2017-09-24T19:43:49.217Z,96160
2017-09-24T19:49:17.393Z,96160
2017-09-24T19:54:45.553Z,96164
2017-09-24T20:00:13.716Z,96172
2017-09-24T20:05:41.882Z,96170
2017-09-24T20:11:10.053Z,96167
2017-09-24T20:16:39.891Z,96156
2017-09-24T20:22:08.055Z,96153
2017-09-24T20:27:36.222Z,96166
2017-09-24T20:33:04.381Z,96154
2017-09-24T20:38:32.549Z,96150
2017-09-24T20:44:00.695Z,96156
2017-09-24T20:49:28.836Z,96152
2017-09-24T20:54:56.979Z,96147
2017-09-24T21:00:26.133Z,96153
2017-09-24T21:05:55.056Z,96154
2017-09-24T21:11:23.238Z,96154
2017-09-24T21:16:51.392Z,96151
2017-09-24T21:22:19.546Z,96149
2017-09-24T21:27:47.759Z,96150
2017-09-24T21:33:16.680Z,96146
2017-09-24T21:38:44.852Z,96140
2017-09-24T21:44:13.016Z,96131
2017-09-24T21:49:41.178Z,96124
2017-09-24T21:55:09.565Z,96128
2017-09-24T22:00:37.763Z,96128
2017-09-24T22:06:05.998Z,96116
2017-09-24T22:11:34.187Z,96112
2017-09-24T22:17:02.474Z,96108
2017-09-24T22:22:30.713Z,96111
2017-09-24T22:27:58.968Z,96105
2017-09-24T22:33:27.144Z,96099
2017-09-24T22:38:55.936Z,96098
2017-09-24T22:44:26.042Z,96098
2017-09-24T22:49:54.333Z,96092
2017-09-24T22:55:22.598Z,96085
2017-09-24T23:00:50.786Z,96090
2017-09-24T23:06:18.988Z,96082
2017-09-24T23:11:47.919Z,96094
2017-09-24T23:17:16.074Z,96080
2017-09-24T23:22:44.217Z,96080
2017-09-24T23:28:12.459Z,96077
2017-09-24T23:33:41.366Z,96073
2017-09-24T23:39:09.526Z,96068
2017-09-24T23:44:37.658Z,96068
2017-09-24T23:50:05.805Z,96069
2017-09-24T23:55:34.717Z,96063
